createdAt,value
2018-07-07T00:00:27.705Z,19.94
2018-07-07T00:01:27.725Z,20.05
2018-07-07T00:02:27.738Z,20.02
2018-07-07T00:03:27.823Z,19.95
2018-07-07T00:04:27.774Z,19.95
2018-07-07T00:05:27.797Z,19.92
2018-07-07T00:06:27.818Z,19.99
2018-07-07T00:07:27.878Z,19.95
2018-07-07T00:08:27.852Z,19.94
2018-07-07T00:09:27.884Z,19.99
2018-07-07T00:10:27.875Z,20.01
2018-07-07T00:11:27.893Z,19.99
2018-07-07T00:12:27.907Z,20.02
2018-07-07T00:13:27.976Z,19.96
2018-07-07T00:14:27.969Z,20.11
2018-07-07T00:15:27.956Z,20.05
2018-07-07T00:16:27.976Z,20.02
2018-07-07T00:17:27.999Z,20.08
2018-07-07T00:18:28.013Z,20.10
2018-07-07T00:19:28.075Z,20.05
2018-07-07T00:20:28.043Z,20.08
2018-07-07T00:21:28.065Z,20.10
2018-07-07T00:22:28.165Z,20.06
2018-07-07T00:23:28.104Z,20.06
2018-07-07T00:24:28.110Z,20.10
2018-07-07T00:25:28.179Z,20.01
2018-07-07T00:26:28.148Z,20.10
2018-07-07T00:27:28.164Z,20.13
2018-07-07T00:28:28.183Z,20.01
2018-07-07T00:29:28.200Z,20.11
2018-07-07T00:30:28.215Z,20.08
2018-07-07T00:31:28.279Z,20.02
2018-07-07T00:32:28.256Z,19.96
2018-07-07T00:33:28.292Z,19.99
2018-07-07T00:34:28.286Z,20.03
2018-07-07T00:35:28.297Z,20.01
2018-07-07T00:36:28.315Z,20.02
2018-07-07T00:37:28.384Z,20.03
2018-07-07T00:38:28.353Z,19.96
2018-07-07T00:39:28.375Z,19.96
2018-07-07T00:40:28.449Z,20.02
2018-07-07T00:41:28.405Z,19.99
2018-07-07T00:42:28.416Z,19.98
2018-07-07T00:43:28.485Z,19.96
2018-07-07T00:44:28.456Z,19.95
2018-07-07T00:45:28.473Z,19.99
2018-07-07T00:46:28.489Z,19.95
2018-07-07T00:47:28.507Z,20.03
2018-07-07T00:48:28.518Z,20.03
2018-07-07T00:49:28.540Z,20.03
2018-07-07T00:50:28.557Z,20.02
2018-07-07T00:51:28.573Z,20.01
2018-07-07T00:52:28.624Z,19.95
2018-07-07T00:53:28.603Z,19.94
2018-07-07T00:54:28.674Z,19.99
2018-07-07T00:55:28.746Z,19.96
2018-07-07T00:56:28.656Z,19.98
2018-07-07T00:57:28.676Z,20.03
2018-07-07T00:58:28.699Z,20.03
2018-07-07T00:59:28.707Z,19.96
2018-07-07T01:00:28.724Z,20.03
2018-07-07T01:01:29.596Z,20.05
2018-07-07T01:02:28.761Z,19.98
2018-07-07T01:03:28.773Z,19.98
2018-07-07T01:04:28.793Z,20.01
2018-07-07T01:05:28.809Z,19.94
2018-07-07T01:06:28.831Z,19.98
2018-07-07T01:07:28.895Z,19.92
2018-07-07T01:08:28.859Z,19.99
2018-07-07T01:09:28.897Z,19.94
2018-07-07T01:10:28.898Z,19.95
2018-07-07T01:11:28.920Z,19.96
2018-07-07T01:12:28.932Z,20.01
2018-07-07T01:13:28.952Z,19.95
2018-07-07T01:14:28.961Z,19.98
2018-07-07T01:15:28.984Z,20.02
2018-07-07T01:16:29.001Z,19.99
2018-07-07T01:17:29.014Z,19.96
2018-07-07T01:18:29.030Z,19.98
2018-07-07T01:19:29.054Z,20.05
2018-07-07T01:20:29.065Z,19.99
2018-07-07T01:21:29.086Z,19.98
2018-07-07T01:22:29.097Z,20.01
2018-07-07T01:23:29.120Z,20.03
2018-07-07T01:24:29.138Z,19.94
2018-07-07T01:25:29.151Z,19.91
2018-07-07T01:26:29.167Z,19.94
2018-07-07T01:27:29.189Z,19.92
2018-07-07T01:28:29.206Z,19.96
2018-07-07T01:29:29.279Z,19.95
2018-07-07T01:30:29.239Z,19.88
2018-07-07T01:31:29.308Z,19.94
2018-07-07T01:32:29.269Z,19.95
2018-07-07T01:33:29.292Z,19.91
2018-07-07T01:34:29.305Z,19.95
2018-07-07T01:35:29.404Z,20.02
2018-07-07T01:36:29.341Z,19.95
2018-07-07T01:37:29.411Z,19.95
2018-07-07T01:38:29.378Z,19.94
2018-07-07T01:39:29.390Z,19.95
2018-07-07T01:40:29.413Z,19.99
2018-07-07T01:41:29.440Z,19.88
2018-07-07T01:42:29.445Z,19.87
2018-07-07T01:43:29.465Z,19.91
2018-07-07T01:44:29.481Z,19.91
2018-07-07T01:45:29.500Z,19.86
2018-07-07T01:46:29.513Z,19.87
2018-07-07T01:47:29.587Z,19.92
2018-07-07T01:48:29.545Z,19.88
2018-07-07T01:49:29.568Z,19.87
2018-07-07T01:50:29.577Z,19.84
2018-07-07T01:51:29.599Z,19.96
2018-07-07T01:52:29.616Z,19.95
2018-07-07T01:53:29.635Z,19.92
2018-07-07T01:54:29.649Z,19.96
2018-07-07T01:55:29.723Z,19.86
2018-07-07T01:56:29.686Z,19.84
2018-07-07T01:57:29.728Z,19.83
2018-07-07T01:58:29.724Z,19.87
2018-07-07T01:59:29.741Z,19.94
2018-07-07T02:00:29.773Z,19.86
2018-07-07T02:01:29.772Z,19.87
2018-07-07T02:02:29.786Z,19.91
2018-07-07T02:03:29.805Z,19.94
2018-07-07T02:04:29.821Z,19.91
2018-07-07T02:05:29.835Z,19.87
2018-07-07T02:06:29.928Z,19.94
2018-07-07T02:07:29.923Z,19.86
2018-07-07T02:08:29.886Z,19.81
2018-07-07T02:09:29.902Z,19.88
2018-07-07T02:10:29.932Z,19.86
2018-07-07T02:11:29.941Z,19.95
2018-07-07T02:12:30.025Z,19.98
2018-07-07T02:13:30.027Z,19.99
2018-07-07T02:14:29.993Z,19.99
2018-07-07T02:15:30.012Z,19.98
2018-07-07T02:16:30.023Z,19.96
2018-07-07T02:17:30.044Z,19.99
2018-07-07T02:18:30.122Z,20.03
2018-07-07T02:19:30.124Z,20.01
2018-07-07T02:20:30.095Z,19.95
2018-07-07T02:21:30.113Z,20.02
2018-07-07T02:22:30.124Z,19.99
2018-07-07T02:23:30.149Z,19.99
2018-07-07T02:24:30.177Z,20.03
2018-07-07T02:25:30.234Z,19.96
2018-07-07T02:26:30.193Z,20.05
2018-07-07T02:27:30.212Z,19.99
2018-07-07T02:28:30.229Z,19.99
2018-07-07T02:29:30.249Z,20.11
2018-07-07T02:30:30.263Z,19.98
2018-07-07T02:31:30.399Z,20.02
2018-07-07T02:32:30.301Z,19.94
2018-07-07T02:33:30.317Z,19.96
2018-07-07T02:34:30.336Z,20.01
2018-07-07T02:35:30.351Z,19.92
2018-07-07T02:36:30.371Z,19.94
2018-07-07T02:37:30.390Z,19.92
2018-07-07T02:38:30.399Z,19.99
2018-07-07T02:39:30.416Z,19.99
2018-07-07T02:40:30.443Z,19.98
2018-07-07T02:41:30.454Z,19.95
2018-07-07T02:42:30.522Z,19.96
2018-07-07T02:43:30.537Z,19.98
2018-07-07T02:44:30.504Z,19.94
2018-07-07T02:45:30.520Z,19.98
2018-07-07T02:46:30.541Z,19.92
2018-07-07T02:47:30.559Z,19.95
2018-07-07T02:48:30.593Z,19.99
2018-07-07T02:49:30.647Z,19.96
2018-07-07T02:50:30.609Z,20.02
2018-07-07T02:51:30.627Z,20.01
2018-07-07T02:52:30.642Z,20.01
2018-07-07T02:53:30.661Z,20.03
2018-07-07T02:54:30.716Z,20.02
2018-07-07T02:55:30.746Z,19.92
2018-07-07T02:56:30.718Z,19.88
2018-07-07T02:57:30.729Z,19.94
2018-07-07T02:58:30.742Z,19.95
2018-07-07T02:59:30.764Z,19.96
2018-07-07T03:00:30.779Z,20.02
2018-07-07T03:01:33.954Z,19.98
2018-07-07T03:02:30.816Z,20.03
2018-07-07T03:03:30.832Z,19.95
2018-07-07T03:04:30.850Z,19.95
2018-07-07T03:05:30.870Z,19.96
2018-07-07T03:06:30.879Z,19.92
2018-07-07T03:07:30.952Z,19.96
2018-07-07T03:08:30.917Z,19.99
2018-07-07T03:09:30.937Z,19.92
2018-07-07T03:10:30.953Z,20.01
2018-07-07T03:11:30.970Z,19.96
2018-07-07T03:12:30.983Z,19.99
2018-07-07T03:13:31.147Z,19.95
2018-07-07T03:14:31.020Z,19.92
2018-07-07T03:15:31.034Z,19.94
2018-07-07T03:16:31.056Z,19.95
2018-07-07T03:17:31.072Z,19.95
2018-07-07T03:18:31.085Z,19.88
2018-07-07T03:19:31.117Z,19.88
2018-07-07T03:20:31.128Z,19.91
2018-07-07T03:21:31.142Z,19.95
2018-07-07T03:22:31.152Z,19.87
2018-07-07T03:23:31.171Z,19.76
2018-07-07T03:24:31.193Z,19.86
2018-07-07T03:25:31.206Z,19.86
2018-07-07T03:26:31.231Z,19.78
2018-07-07T03:27:31.242Z,19.91
2018-07-07T03:28:31.257Z,19.81
2018-07-07T03:29:31.277Z,19.88
2018-07-07T03:30:31.289Z,19.86
2018-07-07T03:31:31.311Z,19.77
2018-07-07T03:32:31.324Z,19.84
2018-07-07T03:33:31.340Z,19.80
2018-07-07T03:34:31.356Z,19.83
2018-07-07T03:35:31.378Z,19.86
2018-07-07T03:36:31.392Z,19.77
2018-07-07T03:37:31.414Z,19.78
2018-07-07T03:38:31.429Z,19.87
2018-07-07T03:39:31.444Z,19.80
2018-07-07T03:40:31.460Z,19.81
2018-07-07T03:41:31.485Z,19.73
2018-07-07T03:42:31.500Z,19.81
2018-07-07T03:43:31.515Z,19.83
2018-07-07T03:44:31.533Z,19.81
2018-07-07T03:45:31.550Z,19.83
2018-07-07T03:46:31.566Z,19.87
2018-07-07T03:47:31.583Z,19.80
2018-07-07T03:48:31.606Z,19.78
2018-07-07T03:49:31.631Z,19.91
2018-07-07T03:50:31.634Z,19.83
2018-07-07T03:51:31.652Z,19.88
2018-07-07T03:52:31.670Z,19.88
2018-07-07T03:53:31.684Z,19.91
2018-07-07T03:54:31.704Z,19.86
2018-07-07T03:55:31.716Z,19.81
2018-07-07T03:56:31.781Z,19.81
2018-07-07T03:57:31.750Z,19.88
2018-07-07T03:58:31.772Z,19.95
2018-07-07T03:59:31.783Z,19.91
2018-07-07T04:00:31.804Z,19.92
2018-07-07T04:01:31.820Z,20.01
2018-07-07T04:02:31.839Z,20.02
2018-07-07T04:03:31.852Z,20.08
2018-07-07T04:04:31.869Z,20.03
2018-07-07T04:05:31.890Z,19.95
2018-07-07T04:06:31.903Z,19.92
2018-07-07T04:07:31.922Z,19.96
2018-07-07T04:08:31.975Z,19.94
2018-07-07T04:09:31.955Z,19.99
2018-07-07T04:10:31.972Z,20.10
2018-07-07T04:11:31.992Z,20.11
2018-07-07T04:12:32.010Z,20.13
2018-07-07T04:13:32.027Z,20.10
2018-07-07T04:14:32.039Z,20.10
2018-07-07T04:15:32.057Z,20.10
2018-07-07T04:16:32.088Z,20.03
2018-07-07T04:17:32.097Z,19.95
2018-07-07T04:18:32.113Z,19.87
2018-07-07T04:19:32.125Z,19.88
2018-07-07T04:20:32.147Z,19.88
2018-07-07T04:21:32.165Z,19.83
2018-07-07T04:22:32.176Z,19.76
2018-07-07T04:23:32.198Z,19.83
2018-07-07T04:24:32.212Z,19.83
2018-07-07T04:25:32.235Z,19.83
2018-07-07T04:26:32.246Z,19.86
2018-07-07T04:27:32.316Z,19.80
2018-07-07T04:28:32.284Z,19.83
2018-07-07T04:29:32.301Z,19.78
2018-07-07T04:30:32.374Z,19.81
2018-07-07T04:31:32.336Z,19.84
2018-07-07T04:32:32.352Z,19.76
2018-07-07T04:33:32.373Z,19.81
2018-07-07T04:34:32.385Z,19.78
2018-07-07T04:35:32.399Z,19.84
2018-07-07T04:36:32.419Z,19.76
2018-07-07T04:37:32.439Z,19.81
2018-07-07T04:38:32.457Z,19.84
2018-07-07T04:39:32.469Z,19.80
2018-07-07T04:40:32.484Z,19.73
2018-07-07T04:41:32.507Z,19.73
2018-07-07T04:42:32.522Z,19.78
2018-07-07T04:43:32.536Z,19.77
2018-07-07T04:44:32.557Z,19.83
2018-07-07T04:45:32.606Z,19.80
2018-07-07T04:46:32.588Z,19.80
2018-07-07T04:47:32.603Z,19.80
2018-07-07T04:48:32.628Z,19.78
2018-07-07T04:49:32.637Z,19.81
2018-07-07T04:50:32.658Z,19.84
2018-07-07T04:51:32.675Z,19.80
2018-07-07T04:52:32.696Z,19.84
2018-07-07T04:53:32.705Z,19.78
2018-07-07T04:54:32.721Z,19.78
2018-07-07T04:55:32.741Z,19.84
2018-07-07T04:56:32.761Z,19.80
2018-07-07T04:57:32.778Z,19.78
2018-07-07T04:58:32.789Z,19.81
2018-07-07T04:59:32.810Z,19.87
2018-07-07T05:00:32.829Z,19.80
2018-07-07T05:01:32.845Z,19.77
2018-07-07T05:02:32.857Z,19.83
2018-07-07T05:03:32.878Z,19.81
2018-07-07T05:04:32.985Z,19.83
2018-07-07T05:05:32.910Z,19.84
2018-07-07T05:06:32.926Z,19.81
2018-07-07T05:07:32.944Z,19.86
2018-07-07T05:08:32.964Z,19.81
2018-07-07T05:09:32.979Z,19.86
2018-07-07T05:10:32.995Z,19.95
2018-07-07T05:11:33.010Z,19.94
2018-07-07T05:12:33.028Z,19.98
2018-07-07T05:13:33.047Z,19.88
2018-07-07T05:14:33.063Z,19.91
2018-07-07T05:15:33.209Z,19.87
2018-07-07T05:16:33.096Z,19.88
2018-07-07T05:17:33.114Z,19.87
2018-07-07T05:18:33.134Z,19.92
2018-07-07T05:19:33.156Z,19.86
2018-07-07T05:20:33.177Z,19.91
2018-07-07T05:21:33.183Z,19.87
2018-07-07T05:22:33.220Z,19.95
2018-07-07T05:23:33.222Z,19.94
2018-07-07T05:24:33.238Z,19.91
2018-07-07T05:25:33.260Z,19.92
2018-07-07T05:26:33.268Z,19.88
2018-07-07T05:27:33.285Z,19.92
2018-07-07T05:28:33.327Z,19.92
2018-07-07T05:29:33.319Z,19.95
2018-07-07T05:30:33.342Z,19.83
2018-07-07T05:31:33.358Z,19.94
2018-07-07T05:32:33.370Z,19.94
2018-07-07T05:33:33.387Z,19.96
2018-07-07T05:34:33.409Z,19.87
2018-07-07T05:35:33.422Z,19.99
2018-07-07T05:36:33.444Z,19.99
2018-07-07T05:37:33.461Z,19.96
2018-07-07T05:38:33.480Z,19.98
2018-07-07T05:39:33.499Z,20.10
2018-07-07T05:40:33.511Z,19.99
2018-07-07T05:41:33.529Z,20.03
2018-07-07T05:42:33.540Z,19.96
2018-07-07T05:43:33.558Z,19.95
2018-07-07T05:44:33.584Z,20.05
2018-07-07T05:45:33.598Z,20.10
2018-07-07T05:46:33.649Z,20.10
2018-07-07T05:47:33.628Z,20.13
2018-07-07T05:48:33.649Z,20.10
2018-07-07T05:49:33.666Z,20.06
2018-07-07T05:50:33.683Z,20.11
2018-07-07T05:51:33.695Z,20.14
2018-07-07T05:52:33.717Z,20.10
2018-07-07T05:53:33.751Z,20.05
2018-07-07T05:54:33.748Z,20.21
2018-07-07T05:55:33.767Z,20.11
2018-07-07T05:56:33.785Z,20.06
2018-07-07T05:57:33.803Z,20.06
2018-07-07T05:58:33.821Z,20.16
2018-07-07T05:59:33.838Z,20.23
2018-07-07T06:00:33.859Z,20.20
2018-07-07T06:01:33.869Z,20.17
2018-07-07T06:02:33.883Z,20.23
2018-07-07T06:03:33.906Z,20.21
2018-07-07T06:04:33.918Z,20.18
2018-07-07T06:05:33.940Z,20.21
2018-07-07T06:06:33.957Z,20.11
2018-07-07T06:07:33.972Z,20.18
2018-07-07T06:08:33.993Z,20.05
2018-07-07T06:09:34.007Z,20.21
2018-07-07T06:10:34.027Z,20.20
2018-07-07T06:11:34.059Z,20.31
2018-07-07T06:12:34.057Z,20.21
2018-07-07T06:13:34.080Z,20.13
2018-07-07T06:14:34.092Z,20.21
2018-07-07T06:15:34.108Z,20.26
2018-07-07T06:16:34.127Z,20.26
2018-07-07T06:17:34.148Z,20.28
2018-07-07T06:18:34.223Z,20.23
2018-07-07T06:19:34.182Z,20.31
2018-07-07T06:20:34.200Z,20.38
2018-07-07T06:21:34.217Z,20.36
2018-07-07T06:22:34.229Z,20.35
2018-07-07T06:23:34.248Z,20.32
2018-07-07T06:24:34.273Z,20.38
2018-07-07T06:25:34.290Z,20.36
2018-07-07T06:26:34.413Z,20.39
2018-07-07T06:27:34.319Z,20.39
2018-07-07T06:28:34.336Z,20.32
2018-07-07T06:29:34.349Z,20.31
2018-07-07T06:30:34.372Z,20.35
2018-07-07T06:31:34.383Z,20.32
2018-07-07T06:32:34.402Z,20.35
2018-07-07T06:33:34.418Z,20.36
2018-07-07T06:34:34.444Z,20.39
2018-07-07T06:35:34.457Z,20.38
2018-07-07T06:36:34.508Z,20.57
2018-07-07T06:37:34.492Z,20.70
2018-07-07T06:38:34.505Z,20.59
2018-07-07T06:39:34.527Z,20.64
2018-07-07T06:40:34.545Z,20.79
2018-07-07T06:41:34.563Z,20.84
2018-07-07T06:42:34.594Z,20.85
2018-07-07T06:43:34.599Z,20.92
2018-07-07T06:44:34.614Z,21.07
2018-07-07T06:45:34.629Z,21.13
2018-07-07T06:46:34.646Z,21.13
2018-07-07T06:47:34.666Z,21.10
2018-07-07T06:48:34.685Z,21.34
2018-07-07T06:49:34.701Z,21.43
2018-07-07T06:50:34.718Z,21.54
2018-07-07T06:51:34.733Z,21.80
2018-07-07T06:52:34.755Z,21.92
2018-07-07T06:53:34.829Z,21.71
2018-07-07T06:54:34.785Z,21.69
2018-07-07T06:55:34.844Z,21.67
2018-07-07T06:56:34.822Z,21.52
2018-07-07T06:57:34.840Z,21.28
2018-07-07T06:58:34.862Z,21.35
2018-07-07T06:59:34.950Z,21.38
2018-07-07T07:00:34.902Z,21.27
2018-07-07T07:01:34.946Z,21.28
2018-07-07T07:02:34.928Z,21.29
2018-07-07T07:03:35.033Z,21.12
2018-07-07T07:04:34.986Z,21.12
2018-07-07T07:05:34.988Z,21.22
2018-07-07T07:06:35.053Z,21.14
2018-07-07T07:07:35.039Z,21.22
2018-07-07T07:08:35.041Z,21.28
2018-07-07T07:09:35.055Z,21.28
2018-07-07T07:10:35.071Z,21.28
2018-07-07T07:11:35.089Z,21.40
2018-07-07T07:12:35.108Z,21.53
2018-07-07T07:13:35.161Z,21.84
2018-07-07T07:14:35.147Z,21.67
2018-07-07T07:15:35.167Z,21.65
2018-07-07T07:16:35.204Z,21.98
2018-07-07T07:17:35.205Z,21.90
2018-07-07T07:18:35.214Z,22.14
2018-07-07T07:19:35.234Z,22.17
2018-07-07T07:20:35.251Z,22.09
2018-07-07T07:21:35.272Z,22.10
2018-07-07T07:22:35.285Z,22.06
2018-07-07T07:23:35.304Z,22.00
2018-07-07T07:24:35.322Z,21.90
2018-07-07T07:25:35.345Z,21.91
2018-07-07T07:26:35.439Z,21.96
2018-07-07T07:27:35.381Z,22.06
2018-07-07T07:28:35.400Z,22.21
2018-07-07T07:29:35.414Z,22.25
2018-07-07T07:30:35.435Z,22.37
2018-07-07T07:31:35.449Z,22.36
2018-07-07T07:32:35.559Z,22.51
2018-07-07T07:33:35.492Z,22.51
2018-07-07T07:34:35.507Z,22.28
2018-07-07T07:35:35.528Z,22.33
2018-07-07T07:36:35.544Z,22.27
2018-07-07T07:37:35.565Z,22.20
2018-07-07T07:38:35.601Z,22.18
2018-07-07T07:39:35.595Z,22.27
2018-07-07T07:40:35.619Z,22.22
2018-07-07T07:41:35.635Z,22.37
2018-07-07T07:42:35.655Z,22.43
2018-07-07T07:43:35.673Z,22.49
2018-07-07T07:44:35.687Z,22.37
2018-07-07T07:45:35.711Z,22.49
2018-07-07T07:46:35.729Z,22.61
2018-07-07T07:47:35.744Z,22.33
2018-07-07T07:48:35.765Z,22.30
2018-07-07T07:49:35.780Z,22.49
2018-07-07T07:50:35.805Z,22.62
2018-07-07T07:51:35.832Z,22.85
2018-07-07T07:52:35.841Z,22.95
2018-07-07T07:53:35.861Z,23.19
2018-07-07T07:54:35.879Z,23.47
2018-07-07T07:55:35.896Z,23.83
2018-07-07T07:56:35.913Z,24.10
2018-07-07T07:57:35.933Z,24.46
2018-07-07T07:58:35.950Z,24.57
2018-07-07T07:59:35.968Z,24.85
2018-07-07T08:00:35.985Z,24.61
2018-07-07T08:01:36.015Z,24.53
2018-07-07T08:02:36.056Z,24.49
2018-07-07T08:03:36.047Z,24.21
2018-07-07T08:04:36.067Z,24.00
2018-07-07T08:05:36.086Z,24.02
2018-07-07T08:06:36.108Z,23.88
2018-07-07T08:07:36.122Z,24.13
2018-07-07T08:08:36.198Z,23.90
2018-07-07T08:09:36.159Z,23.87
2018-07-07T08:10:36.178Z,23.94
2018-07-07T08:11:36.198Z,23.91
2018-07-07T08:12:36.228Z,23.85
2018-07-07T08:13:36.241Z,23.72
2018-07-07T08:14:36.341Z,23.50
2018-07-07T08:15:36.278Z,23.25
2018-07-07T08:16:36.295Z,22.95
2018-07-07T08:17:36.315Z,22.91
2018-07-07T08:18:36.340Z,22.79
2018-07-07T08:19:36.358Z,22.65
2018-07-07T08:20:36.417Z,22.52
2018-07-07T08:21:36.391Z,22.45
2018-07-07T08:22:36.480Z,22.33
2018-07-07T08:23:36.430Z,22.33
2018-07-07T08:24:36.456Z,22.52
2018-07-07T08:25:36.474Z,22.45
2018-07-07T08:26:36.494Z,22.39
2018-07-07T08:27:36.511Z,22.45
2018-07-07T08:28:36.531Z,22.42
2018-07-07T08:29:36.550Z,22.61
2018-07-07T08:30:36.569Z,22.58
2018-07-07T08:31:36.588Z,22.47
2018-07-07T08:32:36.630Z,22.52
2018-07-07T08:33:36.634Z,22.65
2018-07-07T08:34:36.640Z,22.83
2018-07-07T08:35:36.658Z,22.85
2018-07-07T08:36:36.687Z,22.92
2018-07-07T08:37:36.700Z,23.02
2018-07-07T08:38:36.723Z,23.23
2018-07-07T08:39:36.733Z,23.09
2018-07-07T08:40:36.758Z,23.48
2018-07-07T08:41:36.774Z,23.87
2018-07-07T08:42:36.795Z,23.40
2018-07-07T08:43:36.813Z,23.20
2018-07-07T08:44:36.837Z,23.15
2018-07-07T08:45:36.850Z,23.04
2018-07-07T08:46:36.866Z,22.88
2018-07-07T08:47:36.888Z,22.91
2018-07-07T08:48:36.931Z,23.05
2018-07-07T08:49:36.926Z,22.97
2018-07-07T08:50:36.947Z,23.27
2018-07-07T08:51:37.048Z,23.68
2018-07-07T08:52:36.986Z,24.16
2018-07-07T08:53:37.002Z,24.61
2018-07-07T08:54:37.021Z,24.83
2018-07-07T08:55:37.040Z,25.02
2018-07-07T08:56:37.060Z,25.00
2018-07-07T08:57:37.082Z,24.96
2018-07-07T08:58:37.100Z,25.27
2018-07-07T08:59:37.117Z,25.52
2018-07-07T09:00:37.139Z,25.55
2018-07-07T09:01:37.151Z,25.55
2018-07-07T09:02:37.175Z,25.87
2018-07-07T09:03:37.190Z,26.12
2018-07-07T09:04:37.213Z,26.51
2018-07-07T09:05:37.232Z,26.91
2018-07-07T09:06:37.253Z,27.17
2018-07-07T09:07:37.311Z,26.58
2018-07-07T09:08:37.291Z,26.57
2018-07-07T09:09:37.313Z,26.48
2018-07-07T09:10:37.340Z,26.44
2018-07-07T09:11:37.352Z,26.75
2018-07-07T09:12:37.378Z,26.84
2018-07-07T09:13:37.395Z,27.13
2018-07-07T09:14:37.418Z,26.69
2018-07-07T09:15:37.435Z,26.94
2018-07-07T09:16:37.481Z,27.04
2018-07-07T09:17:37.479Z,27.54
2018-07-07T09:18:37.505Z,27.49
2018-07-07T09:19:37.519Z,27.06
2018-07-07T09:20:37.546Z,27.22
2018-07-07T09:21:37.567Z,27.03
2018-07-07T09:22:37.591Z,26.76
2018-07-07T09:23:37.608Z,27.10
2018-07-07T09:24:37.697Z,27.37
2018-07-07T09:25:37.646Z,27.06
2018-07-07T09:26:37.672Z,27.37
2018-07-07T09:27:37.693Z,26.95
2018-07-07T09:28:37.716Z,27.10
2018-07-07T09:29:37.739Z,27.21
2018-07-07T09:30:37.758Z,26.95
2018-07-07T09:31:37.775Z,26.81
2018-07-07T09:32:37.800Z,26.63
2018-07-07T09:33:37.825Z,27.12
2018-07-07T09:34:37.843Z,27.27
2018-07-07T09:35:37.973Z,27.28
2018-07-07T09:36:37.889Z,27.25
2018-07-07T09:37:37.910Z,27.21
2018-07-07T09:38:37.931Z,27.62
2018-07-07T09:39:37.952Z,27.66
2018-07-07T09:40:37.971Z,28.02
2018-07-07T09:41:38.044Z,27.59
2018-07-07T09:42:38.016Z,27.82
2018-07-07T09:43:38.036Z,28.06
2018-07-07T09:44:38.066Z,27.87
2018-07-07T09:45:38.084Z,27.54
2018-07-07T09:46:38.103Z,27.25
2018-07-07T09:47:38.165Z,26.94
2018-07-07T09:48:38.148Z,26.72
2018-07-07T09:49:38.177Z,27.14
2018-07-07T09:50:38.192Z,27.37
2018-07-07T09:51:38.214Z,27.27
2018-07-07T09:52:38.233Z,27.84
2018-07-07T09:53:38.255Z,27.40
2018-07-07T09:54:38.287Z,27.67
2018-07-07T09:55:38.301Z,27.92
2018-07-07T09:56:38.325Z,28.02
2018-07-07T09:57:38.344Z,28.15
2018-07-07T09:58:38.368Z,28.04
2018-07-07T09:59:38.386Z,27.32
2018-07-07T10:00:38.413Z,27.29
2018-07-07T10:01:38.434Z,27.51
2018-07-07T10:02:38.461Z,27.94
2018-07-07T10:03:38.474Z,28.39
2018-07-07T10:04:38.495Z,28.39
2018-07-07T10:05:38.519Z,27.97
2018-07-07T10:06:38.623Z,28.34
2018-07-07T10:07:38.595Z,28.68
2018-07-07T10:08:38.584Z,29.18
2018-07-07T10:09:38.611Z,29.15
2018-07-07T10:10:38.630Z,28.93
2018-07-07T10:11:38.652Z,28.89
2018-07-07T10:12:38.679Z,28.81
2018-07-07T10:13:38.699Z,29.19
2018-07-07T10:14:38.722Z,28.58
2018-07-07T10:15:38.745Z,28.27
2018-07-07T10:16:38.768Z,28.14
2018-07-07T10:17:38.838Z,28.67
2018-07-07T10:18:38.812Z,28.81
2018-07-07T10:19:38.831Z,28.21
2018-07-07T10:20:38.903Z,28.43
2018-07-07T10:21:38.877Z,28.73
2018-07-07T10:22:38.897Z,28.68
2018-07-07T10:23:38.926Z,28.85
2018-07-07T10:24:38.952Z,29.37
2018-07-07T10:25:39.069Z,29.30
2018-07-07T10:26:38.993Z,29.65
2018-07-07T10:27:39.018Z,29.43
2018-07-07T10:28:39.043Z,29.42
2018-07-07T10:29:39.063Z,28.73
2018-07-07T10:30:39.085Z,28.51
2018-07-07T10:31:39.323Z,28.55
2018-07-07T10:32:39.131Z,28.73
2018-07-07T10:33:39.153Z,29.24
2018-07-07T10:34:39.173Z,29.52
2018-07-07T10:35:39.199Z,29.71
2018-07-07T10:36:39.223Z,29.97
2018-07-07T10:37:39.298Z,30.29
2018-07-07T10:38:39.268Z,30.01
2018-07-07T10:39:39.291Z,29.97
2018-07-07T10:40:39.309Z,30.04
2018-07-07T10:41:39.338Z,30.02
2018-07-07T10:42:39.360Z,29.73
2018-07-07T10:43:39.385Z,29.36
2018-07-07T10:44:39.408Z,29.58
2018-07-07T10:45:39.534Z,29.82
2018-07-07T10:46:39.469Z,29.65
2018-07-07T10:47:39.476Z,30.01
2018-07-07T10:48:39.498Z,30.51
2018-07-07T10:49:39.536Z,30.22
2018-07-07T10:50:39.544Z,30.26
2018-07-07T10:51:39.572Z,30.46
2018-07-07T10:52:39.590Z,30.91
2018-07-07T10:53:39.620Z,30.35
2018-07-07T10:54:39.636Z,30.64
2018-07-07T10:55:39.661Z,30.91
2018-07-07T10:56:39.714Z,31.14
2018-07-07T10:57:39.710Z,30.92
2018-07-07T10:58:39.748Z,30.65
2018-07-07T10:59:39.757Z,30.92
2018-07-07T11:00:39.780Z,30.23
2018-07-07T11:01:39.809Z,30.23
2018-07-07T11:02:39.841Z,30.49
2018-07-07T11:03:39.858Z,30.47
2018-07-07T11:04:39.880Z,30.15
2018-07-07T11:05:39.900Z,30.24
2018-07-07T11:06:39.930Z,30.17
2018-07-07T11:07:39.951Z,29.87
2018-07-07T11:08:39.982Z,30.58
2018-07-07T11:09:39.999Z,31.28
2018-07-07T11:10:40.026Z,31.89
2018-07-07T11:11:40.060Z,32.15
2018-07-07T11:12:40.069Z,32.19
2018-07-07T11:13:40.096Z,32.57
2018-07-07T11:14:40.118Z,32.79
2018-07-07T11:15:40.140Z,32.26
2018-07-07T11:16:40.165Z,32.33
2018-07-07T11:17:40.190Z,32.19
2018-07-07T11:18:40.212Z,32.18
2018-07-07T11:19:40.240Z,31.48
2018-07-07T11:20:40.265Z,31.53
2018-07-07T11:21:40.287Z,31.70
2018-07-07T11:22:40.311Z,32.00
2018-07-07T11:23:40.335Z,32.08
2018-07-07T11:24:40.360Z,31.92
2018-07-07T11:25:40.389Z,32.26
2018-07-07T11:26:40.440Z,32.48
2018-07-07T11:27:40.440Z,32.32
2018-07-07T11:28:40.461Z,32.44
2018-07-07T11:29:40.542Z,32.35
2018-07-07T11:30:40.513Z,31.73
2018-07-07T11:31:40.534Z,32.10
2018-07-07T11:32:40.563Z,32.45
2018-07-07T11:33:40.586Z,32.63
2018-07-07T11:34:40.605Z,32.18
2018-07-07T11:35:40.631Z,31.25
2018-07-07T11:36:40.820Z,31.12
2018-07-07T11:37:40.688Z,30.83
2018-07-07T11:38:40.710Z,30.84
2018-07-07T11:39:40.731Z,30.67
2018-07-07T11:40:40.760Z,30.67
2018-07-07T11:41:40.787Z,30.95
2018-07-07T11:42:40.809Z,30.89
2018-07-07T11:43:40.837Z,31.09
2018-07-07T11:44:40.861Z,31.12
2018-07-07T11:45:40.896Z,31.31
2018-07-07T11:46:40.911Z,31.69
2018-07-07T11:47:40.934Z,31.99
2018-07-07T11:48:40.959Z,32.06
2018-07-07T11:49:40.980Z,32.23
2018-07-07T11:50:41.003Z,32.33
2018-07-07T11:51:41.032Z,31.91
2018-07-07T11:52:41.053Z,32.62
2018-07-07T11:53:41.079Z,32.75
2018-07-07T11:54:41.101Z,33.04
2018-07-07T11:55:41.126Z,32.85
2018-07-07T11:56:41.153Z,32.33
2018-07-07T11:57:41.190Z,32.13
2018-07-07T11:58:41.251Z,32.30
2018-07-07T11:59:41.230Z,32.28
2018-07-07T12:00:41.253Z,32.07
2018-07-07T12:01:41.279Z,32.03
2018-07-07T12:02:41.302Z,32.41
2018-07-07T12:03:41.333Z,31.92
2018-07-07T12:04:41.420Z,31.65
2018-07-07T12:05:41.378Z,31.93
2018-07-07T12:06:41.401Z,31.63
2018-07-07T12:07:41.430Z,31.80
2018-07-07T12:08:41.451Z,31.69
2018-07-07T12:09:41.480Z,31.85
2018-07-07T12:10:41.502Z,31.93
2018-07-07T12:11:41.542Z,32.06
2018-07-07T12:12:41.553Z,32.06
2018-07-07T12:13:41.582Z,32.32
2018-07-07T12:14:41.602Z,32.15
2018-07-07T12:15:41.632Z,32.29
2018-07-07T12:16:41.682Z,32.45
2018-07-07T12:17:41.677Z,32.52
2018-07-07T12:18:41.704Z,32.99
2018-07-07T12:19:41.732Z,32.66
2018-07-07T12:20:41.760Z,32.35
2018-07-07T12:21:41.786Z,32.56
2018-07-07T12:22:41.802Z,32.03
2018-07-07T12:23:41.829Z,32.32
2018-07-07T12:24:41.922Z,32.30
2018-07-07T12:25:41.882Z,32.40
2018-07-07T12:26:41.903Z,32.63
2018-07-07T12:27:41.980Z,32.43
2018-07-07T12:28:41.954Z,32.57
2018-07-07T12:29:41.981Z,32.69
2018-07-07T12:30:42.002Z,32.92
2018-07-07T12:31:42.034Z,33.12
2018-07-07T12:32:42.059Z,33.11
2018-07-07T12:33:42.085Z,33.23
2018-07-07T12:34:42.104Z,32.93
2018-07-07T12:35:42.138Z,32.55
2018-07-07T12:36:42.253Z,32.38
2018-07-07T12:37:42.186Z,32.23
2018-07-07T12:38:42.209Z,32.38
2018-07-07T12:39:42.239Z,32.15
2018-07-07T12:40:42.332Z,32.52
2018-07-07T12:41:42.288Z,32.85
2018-07-07T12:42:42.312Z,32.85
2018-07-07T12:43:42.484Z,32.14
2018-07-07T12:44:42.393Z,31.69
2018-07-07T12:45:42.391Z,31.92
2018-07-07T12:46:42.413Z,32.50
2018-07-07T12:47:42.433Z,33.16
2018-07-07T12:48:42.459Z,32.81
2018-07-07T12:49:42.496Z,33.16
2018-07-07T12:50:42.514Z,33.38
2018-07-07T12:51:42.540Z,33.29
2018-07-07T12:52:42.560Z,32.99